Brunei International Airport
WBSB : now visible

Airfield :











YOU CAN JOIN US ON...

 
LOGIN :

Register | Disclaimer

   EN    FR    IT 

 









Legend :    VFR   Marginal VFR   IFR   Intensive IFR   Very Intensive IFR
Visi :
Ceiling :
>= 8 km
>= 3000ft
5 to 8 km
1000 to 3000 ft
1500m to 5 km
500 to 1000 ft
800 to 1500m
200 to 500 ft
< 800m
< 200 ft
Symbols :   Thunderstorms  Fog  Heavy snow  Heavy precipitations  Wind > 20 kt






- Airport Elevation : 73 ft
- IATA code : BWN


WBSB - Brunei International

CURRENT METAR :
  • 291130Z 24005KT 9999 FEW015 SCT140 BKN280 29/27 Q1006 NOSIG

EXPIRED METARs :
  • 291100Z 24004KT 9999 FEW015 BKN280 29/27 Q1006 NOSIG
  • 291030Z 24004KT 9999 FEW015 FEW016CB BKN280 29/27 Q1005 NOSIG
  • 291000Z 24006KT 9999 FEW015 FEW016CB BKN280 29/26 Q1005 NOSIG
  • 290930Z 24008KT 9999 FEW015 FEW016CB BKN280 30/27 Q1005 NOSIG
  • 290900Z 26008KT 9999 FEW015 FEW016CB BKN280 30/27 Q1004 NOSIG

TAF TAF WBSB
Valid from the 29 at 12:00 until the 30 at 18:00 UTC


291100Z 2912/3018 20003KT 9999 FEW015
BECMG 3003/3005 25011KT FEW016 FEW017CB
WBFC FIR / Asia



MET'MAP, your aeronautical weather chart ! - Copyright ORBIFLY December 2007 - Disclaimer

ORBIFLY MET'MAP TEAM :

Programming & Development : Alexandra Zaïnal
Original concept : Baudouin d'Aumeries
Technical & hardware support : Manuel Goepfert
Assistance : Marc-Olivier Méhu




SOURCES & CREDITS :

   NOAA       Earth
Advisory